createdAt,value
2023-01-10T00:00:07.313Z,-2.59
2023-01-10T00:03:08.274Z,-2.60
2023-01-10T00:06:09.290Z,-2.58
2023-01-10T00:09:10.371Z,-2.58
2023-01-10T00:12:29.261Z,-2.57
2023-01-10T00:15:30.245Z,-2.59
2023-01-10T00:18:32.245Z,-2.56
2023-01-10T00:21:34.270Z,-2.53
2023-01-10T00:24:34.274Z,-2.52
2023-01-10T00:27:34.965Z,-2.55
2023-01-10T00:30:36.912Z,-2.55
2023-01-10T00:33:38.274Z,-2.53
2023-01-10T00:36:38.245Z,-2.54
2023-01-10T00:39:38.268Z,-2.55
2023-01-10T00:42:56.322Z,-2.55
2023-01-10T00:45:58.367Z,-2.57
2023-01-10T00:48:59.367Z,-2.57
2023-01-10T00:52:04.280Z,-2.58
2023-01-10T00:55:05.349Z,-2.57
2023-01-10T00:58:08.412Z,-2.57
2023-01-10T01:01:09.621Z,-2.60
2023-01-10T01:04:09.361Z,-2.62
2023-01-10T01:07:10.322Z,-2.62
2023-01-10T01:10:28.358Z,-2.62
2023-01-10T01:13:33.469Z,-2.60
2023-01-10T01:16:34.316Z,-2.58
2023-01-10T01:19:35.333Z,-2.58
2023-01-10T01:22:36.358Z,-2.61
2023-01-10T01:25:36.327Z,-2.65
2023-01-10T01:28:38.473Z,-2.66
2023-01-10T01:31:40.667Z,-2.68
2023-01-10T01:34:43.477Z,-2.69
2023-01-10T01:37:45.105Z,-2.72
2023-01-10T01:40:47.447Z,-2.71
2023-01-10T01:44:22.635Z,-2.70
2023-01-10T01:47:34.522Z,-2.72
2023-01-10T01:50:41.405Z,-2.75
2023-01-10T01:53:56.395Z,-2.77
2023-01-10T01:57:02.439Z,-2.74
2023-01-10T02:00:07.388Z,-2.74
2023-01-10T02:03:09.589Z,-2.74
2023-01-10T02:06:09.417Z,-2.74
2023-01-10T02:09:18.514Z,-2.78
2023-01-10T02:12:19.447Z,-2.79
2023-01-10T02:15:20.448Z,-2.80
2023-01-10T02:18:21.809Z,-2.82
2023-01-10T02:21:46.431Z,-2.85
2023-01-10T02:24:59.547Z,-2.87
2023-01-10T02:28:01.975Z,-2.85
2023-01-10T02:31:09.718Z,-2.87
2023-01-10T02:34:15.502Z,-2.91
2023-01-10T02:37:20.053Z,-2.97
2023-01-10T02:40:22.487Z,-2.99
2023-01-10T02:43:41.444Z,-3.04
2023-01-10T02:46:44.561Z,-3.07
2023-01-10T02:49:55.599Z,-3.05
2023-01-10T02:52:56.472Z,-3.01
2023-01-10T02:56:08.491Z,-3.00
2023-01-10T02:59:31.556Z,-3.00
2023-01-10T03:02:50.586Z,-3.04
2023-01-10T03:06:07.558Z,-3.10
2023-01-10T03:09:45.507Z,-3.13
2023-01-10T03:12:58.582Z,-3.14
2023-01-10T03:15:58.577Z,-3.18
2023-01-10T03:19:07.533Z,-3.20
2023-01-10T03:22:09.586Z,-3.24
2023-01-10T03:25:09.556Z,-3.26
2023-01-10T03:28:22.622Z,-3.31
2023-01-10T03:31:27.140Z,-3.39
2023-01-10T03:34:28.527Z,-3.45
2023-01-10T03:37:35.617Z,-3.48
2023-01-10T03:40:46.540Z,-3.50
2023-01-10T03:44:19.621Z,-3.53
2023-01-10T03:47:48.578Z,-3.53
2023-01-10T03:50:49.598Z,-3.60
2023-01-10T03:53:51.039Z,-3.65
2023-01-10T03:57:02.949Z,-3.67
2023-01-10T04:00:08.730Z,-3.70
2023-01-10T04:03:09.685Z,-3.72
2023-01-10T04:06:10.703Z,-3.71
2023-01-10T04:09:10.637Z,-3.71
2023-01-10T04:12:11.641Z,-3.75
2023-01-10T04:15:13.767Z,-3.78
2023-01-10T04:18:13.917Z,-3.82
2023-01-10T04:21:13.653Z,-3.80
2023-01-10T04:24:14.624Z,-3.77
2023-01-10T04:27:16.687Z,-3.76
2023-01-10T04:30:16.686Z,-3.77
2023-01-10T04:33:17.713Z,-3.79
2023-01-10T04:36:18.989Z,-3.89
2023-01-10T04:39:18.643Z,-3.95
2023-01-10T04:42:19.178Z,-3.97
2023-01-10T04:45:23.726Z,-3.97
2023-01-10T04:48:23.715Z,-3.99
2023-01-10T04:51:23.753Z,-4.07
2023-01-10T04:54:23.687Z,-4.16
2023-01-10T04:57:26.935Z,-4.23
2023-01-10T05:00:26.780Z,-4.27
2023-01-10T05:03:27.706Z,-4.34
2023-01-10T05:06:29.820Z,-4.36
2023-01-10T05:09:22.894Z,-4.35
2023-01-10T05:12:23.798Z,-4.34
2023-01-10T05:15:27.231Z,-4.43
2023-01-10T05:18:27.862Z,-4.47
2023-01-10T05:21:27.788Z,-4.50
2023-01-10T05:24:28.851Z,-4.62
2023-01-10T05:27:29.786Z,-4.73
2023-01-10T05:30:29.766Z,-4.83
2023-01-10T05:33:30.735Z,-4.96
2023-01-10T05:36:31.722Z,-5.05
2023-01-10T05:39:33.799Z,-5.12
2023-01-10T05:42:36.783Z,-5.16
2023-01-10T05:45:36.845Z,-5.15
2023-01-10T05:48:37.817Z,-5.16
2023-01-10T05:51:37.819Z,-5.23
2023-01-10T05:54:41.880Z,-5.36
2023-01-10T05:57:41.885Z,-5.54
2023-01-10T06:00:45.871Z,-5.65
2023-01-10T06:03:47.815Z,-5.73
2023-01-10T06:06:48.803Z,-5.75
2023-01-10T06:09:55.136Z,-5.77
2023-01-10T06:12:57.038Z,-5.87
2023-01-10T06:15:59.887Z,-6.02
2023-01-10T06:19:01.605Z,-6.23
2023-01-10T06:22:02.847Z,-6.29
2023-01-10T06:25:02.810Z,-6.30
2023-01-10T06:28:02.909Z,-6.33
2023-01-10T06:31:03.573Z,-6.38
2023-01-10T06:34:07.850Z,-6.46
2023-01-10T06:37:13.131Z,-6.51
2023-01-10T06:40:14.935Z,-6.63
2023-01-10T06:43:14.924Z,-6.72
2023-01-10T06:46:15.924Z,-6.75
2023-01-10T06:49:16.901Z,-6.71
2023-01-10T06:52:17.925Z,-6.64
2023-01-10T06:55:18.894Z,-6.65
2023-01-10T06:58:23.949Z,-6.72
2023-01-10T07:01:29.032Z,-6.76
2023-01-10T07:04:28.874Z,-6.79
2023-01-10T07:07:31.975Z,-6.79
2023-01-10T07:10:34.961Z,-6.81
2023-01-10T07:13:37.965Z,-6.91
2023-01-10T07:16:39.894Z,-6.88
2023-01-10T07:19:40.933Z,-6.84
2023-01-10T07:22:45.063Z,-6.85
2023-01-10T07:25:47.161Z,-6.88
2023-01-10T07:28:49.818Z,-6.93
2023-01-10T07:31:50.972Z,-6.91
2023-01-10T07:34:55.003Z,-6.89
2023-01-10T07:37:55.986Z,-6.89
2023-01-10T07:40:55.947Z,-6.86
2023-01-10T07:43:56.129Z,-6.77
2023-01-10T07:46:56.131Z,-6.69
2023-01-10T07:49:56.970Z,-6.63
2023-01-10T07:52:57.006Z,-6.59
2023-01-10T07:55:58.243Z,-6.58
2023-01-10T07:59:04.047Z,-6.54
2023-01-10T08:02:05.063Z,-6.55
2023-01-10T08:05:09.749Z,-6.55
2023-01-10T08:08:24.083Z,-6.47
2023-01-10T08:11:18.047Z,-6.42
2023-01-10T08:14:18.223Z,-6.38
2023-01-10T08:17:18.045Z,-6.30
2023-01-10T08:20:19.040Z,-6.21
2023-01-10T08:23:19.069Z,-6.18
2023-01-10T08:26:20.081Z,-6.16
2023-01-10T08:29:22.097Z,-6.05
2023-01-10T08:32:22.101Z,-6.01
2023-01-10T08:35:25.083Z,-5.97
2023-01-10T08:38:26.089Z,-5.92
2023-01-10T08:41:26.081Z,-5.89
2023-01-10T08:44:26.346Z,-5.84
2023-01-10T08:47:26.112Z,-5.79
2023-01-10T08:50:28.187Z,-5.65
2023-01-10T08:53:28.134Z,-5.44
2023-01-10T08:56:28.164Z,-5.34
2023-01-10T08:59:28.100Z,-5.23
2023-01-10T09:02:30.300Z,-5.00
2023-01-10T09:05:30.104Z,-4.87
2023-01-10T09:08:30.109Z,-4.85
2023-01-10T09:11:30.121Z,-4.75
2023-01-10T09:14:30.140Z,-4.52
2023-01-10T09:17:32.658Z,-4.29
2023-01-10T09:20:33.110Z,-4.00
2023-01-10T09:23:37.058Z,-3.51
2023-01-10T09:26:40.623Z,-2.99
2023-01-10T09:29:41.205Z,-2.71
2023-01-10T09:32:42.247Z,-2.74
2023-01-10T09:35:42.196Z,-2.79
2023-01-10T09:38:43.171Z,-2.67
2023-01-10T09:42:07.312Z,-2.45
2023-01-10T09:45:45.207Z,-1.65
2023-01-10T09:48:55.215Z,-1.00
2023-01-10T09:51:58.304Z,-1.30
2023-01-10T09:54:59.186Z,-1.86
2023-01-10T09:57:59.201Z,-2.41
2023-01-10T10:01:11.312Z,-2.70
2023-01-10T10:04:15.240Z,-2.80
2023-01-10T10:07:16.253Z,-2.54
2023-01-10T10:10:18.236Z,-1.86
2023-01-10T10:13:28.190Z,-1.68
2023-01-10T10:16:38.304Z,-1.60
2023-01-10T10:19:49.276Z,-1.31
2023-01-10T10:22:56.218Z,-1.59
2023-01-10T10:26:18.328Z,-2.05
2023-01-10T10:29:54.308Z,-2.48
2023-01-10T10:33:17.404Z,-2.99
2023-01-10T10:36:31.522Z,-3.33
2023-01-10T10:39:33.236Z,-3.46
2023-01-10T10:42:34.279Z,-3.59
2023-01-10T10:45:55.391Z,-3.64
2023-01-10T10:49:01.280Z,-3.53
2023-01-10T10:52:06.304Z,-3.47
2023-01-10T10:55:06.297Z,-3.54
2023-01-10T16:17:31.857Z,-3.51
2023-01-10T16:20:35.464Z,-3.54
2023-01-10T16:23:37.999Z,-3.57
2023-01-10T16:26:41.265Z,-3.56
2023-01-10T16:29:42.009Z,-3.55
2023-01-10T16:32:44.109Z,-3.60
2023-01-10T16:35:44.873Z,-3.61
2023-01-10T16:38:46.919Z,-3.61
2023-01-10T16:42:06.951Z,-3.60
2023-01-10T16:45:07.938Z,-3.57
2023-01-10T16:48:09.110Z,-3.59
2023-01-10T16:51:35.952Z,-3.62
2023-01-10T16:54:37.961Z,-3.64
2023-01-10T16:57:38.880Z,-3.64
2023-01-10T17:00:40.031Z,-3.64
2023-01-10T17:03:40.866Z,-3.62
2023-01-10T17:06:41.916Z,-3.65
2023-01-10T17:09:43.908Z,-3.68
2023-01-10T17:12:46.973Z,-3.71
2023-01-10T17:15:47.999Z,-3.72
2023-01-10T17:18:48.947Z,-3.71
2023-01-10T17:21:49.968Z,-3.70
2023-01-10T17:24:50.934Z,-3.66
2023-01-10T17:27:52.912Z,-3.60
2023-01-10T17:30:53.959Z,-3.58
2023-01-10T17:33:55.973Z,-3.58
2023-01-10T17:36:56.974Z,-3.62
2023-01-10T17:39:59.131Z,-3.68
2023-01-10T17:43:01.400Z,-3.69
2023-01-10T17:46:06.301Z,-3.65
2023-01-10T17:49:06.969Z,-3.67
2023-01-10T17:52:08.312Z,-3.74
2023-01-10T17:55:09.965Z,-3.77
2023-01-10T17:58:12.001Z,-3.79
2023-01-10T18:01:14.128Z,-3.79
2023-01-10T18:04:15.024Z,-3.78
2023-01-10T18:07:16.049Z,-3.82
2023-01-10T18:10:18.023Z,-3.88
2023-01-10T18:13:19.019Z,-3.92
2023-01-10T18:16:20.094Z,-4.04
2023-01-10T18:19:21.023Z,-4.12
2023-01-10T18:22:40.081Z,-4.20
2023-01-10T18:25:41.030Z,-4.32
2023-01-10T18:28:47.032Z,-4.41
2023-01-10T18:31:49.025Z,-4.50
2023-01-10T18:34:50.111Z,-4.58
2023-01-10T18:37:51.110Z,-4.68
2023-01-10T18:40:59.354Z,-4.77
2023-01-10T18:44:01.110Z,-4.80
2023-01-10T18:47:03.039Z,-4.90
2023-01-10T18:50:04.170Z,-4.95
2023-01-10T18:53:07.057Z,-4.99
2023-01-10T18:56:02.082Z,-5.08
2023-01-10T18:58:51.113Z,-5.11
2023-01-10T19:01:53.405Z,-5.14
2023-01-10T19:04:54.401Z,-5.12
2023-01-10T19:07:57.084Z,-5.17
2023-01-10T19:11:12.451Z,-5.25
2023-01-10T19:14:15.138Z,-5.31
2023-01-10T19:17:16.146Z,-5.34
2023-01-10T19:20:18.137Z,-5.38
2023-01-10T19:23:20.102Z,-5.42
2023-01-10T19:26:21.129Z,-5.49
2023-01-10T19:29:24.185Z,-5.62
2023-01-10T19:32:28.157Z,-5.72
2023-01-10T19:35:29.153Z,-5.76
2023-01-10T19:38:30.137Z,-5.77
2023-01-10T19:41:33.529Z,-5.76
2023-01-10T19:44:35.214Z,-5.77
2023-01-10T19:47:36.157Z,-5.80
2023-01-10T19:50:37.172Z,-5.84
2023-01-10T19:53:39.350Z,-5.90
2023-01-10T19:56:40.681Z,-5.92
2023-01-10T19:59:41.224Z,-5.93
2023-01-10T20:02:44.310Z,-5.97
2023-01-10T20:05:48.221Z,-6.03
2023-01-10T20:08:49.245Z,-6.09
2023-01-10T20:11:53.216Z,-6.13
2023-01-10T20:14:54.438Z,-6.17
2023-01-10T20:17:55.188Z,-6.19
2023-01-10T20:20:56.513Z,-6.23
2023-01-10T20:24:00.331Z,-6.29
2023-01-10T20:27:01.233Z,-6.33
2023-01-10T20:30:02.358Z,-6.33
2023-01-10T20:33:04.235Z,-6.36
2023-01-10T20:36:11.469Z,-6.41
2023-01-10T20:39:16.647Z,-6.41
2023-01-10T20:42:17.399Z,-6.37
2023-01-10T20:45:18.247Z,-6.37
2023-01-10T20:48:20.283Z,-6.42
2023-01-10T20:51:23.288Z,-6.38
2023-01-10T20:54:26.855Z,-6.38
2023-01-10T20:57:27.282Z,-6.47
2023-01-10T21:00:33.357Z,-6.53
2023-01-10T21:03:34.257Z,-6.59
2023-01-10T21:06:36.691Z,-6.56
2023-01-10T21:09:37.341Z,-6.57
2023-01-10T21:12:39.317Z,-6.62
2023-01-10T21:15:42.277Z,-6.60
2023-01-10T21:18:51.404Z,-6.61
2023-01-10T21:21:53.354Z,-6.63
2023-01-10T21:24:55.383Z,-6.64
2023-01-10T21:27:58.309Z,-6.64
2023-01-10T21:30:59.311Z,-6.59
2023-01-10T21:34:00.384Z,-6.53
2023-01-10T21:37:01.371Z,-6.53
2023-01-10T21:40:02.415Z,-6.59
2023-01-10T21:43:03.362Z,-6.63
2023-01-10T21:46:04.379Z,-6.64
2023-01-10T21:49:05.492Z,-6.69
2023-01-10T21:52:07.487Z,-6.70
2023-01-10T21:55:10.917Z,-6.66
2023-01-10T21:58:11.449Z,-6.65
